Time;durP1;ratioP1;P1;durP2;ratioP2;P2;SDS_P1;SDS_P2;PMS_P1;PMS_P2;Temp;Humidity;BMP_temperature;BMP_pressure;BME280_temperature;BME280_humidity;BME280_pressure;Samples;Min_cycle;Max_cycle;Signal;HPM_P1;HPM_P2
2021/04/19 00:00:14;;;;;;;17.93;14.10;;;8.90;99.90;;;;;;5067226;28;20409;-82
2021/04/19 00:02:44;;;;;;;21.63;14.20;;;9.00;99.90;;;;;;5066248;28;20481;-82
2021/04/19 00:05:13;;;;;;;20.40;14.90;;;8.90;99.90;;;;;;5085044;28;20478;-82
2021/04/19 00:07:39;;;;;;;23.23;14.23;;;8.90;99.90;;;;;;5076025;28;20429;-81
2021/04/19 00:10:10;;;;;;;14.80;12.77;;;8.80;99.90;;;;;;5068928;28;20509;-82
2021/04/19 00:12:39;;;;;;;27.17;13.63;;;8.80;99.90;;;;;;5043192;28;20181;-82
2021/04/19 00:15:08;;;;;;;18.43;13.23;;;8.70;99.90;;;;;;5043877;28;20430;-82
2021/04/19 00:17:33;;;;;;;25.70;16.00;;;8.70;99.90;;;;;;5026656;28;20419;-82
2021/04/19 00:20:00;;;;;;;23.73;14.50;;;8.60;99.90;;;;;;5042995;28;20473;-81
2021/04/19 00:22:26;;;;;;;19.67;14.13;;;8.60;99.90;;;;;;5041553;28;20227;-82
2021/04/19 00:24:52;;;;;;;17.87;13.97;;;8.50;99.90;;;;;;5044802;28;20404;-82
2021/04/19 00:27:17;;;;;;;19.57;14.67;;;8.50;99.90;;;;;;5029457;28;20564;-82
2021/04/19 00:29:43;;;;;;;24.70;15.07;;;8.50;99.90;;;;;;5083550;28;20188;-82
2021/04/19 00:32:13;;;;;;;20.87;13.33;;;8.50;99.90;;;;;;5085920;28;20183;-82
2021/04/19 00:34:39;;;;;;;19.83;13.73;;;8.50;99.90;;;;;;5068267;28;20175;-82
2021/04/19 00:37:04;;;;;;;18.67;12.40;;;8.50;99.90;;;;;;5085494;28;20438;-82
2021/04/19 00:39:31;;;;;;;16.10;11.73;;;8.60;99.90;;;;;;5084498;28;20626;-81
2021/04/19 00:41:57;;;;;;;17.63;12.10;;;8.60;99.90;;;;;;5084933;28;20219;-80
2021/04/19 00:44:24;;;;;;;19.70;13.30;;;8.50;99.90;;;;;;5104706;28;20404;-81
2021/04/19 00:46:50;;;;;;;21.20;13.67;;;8.40;99.90;;;;;;5107996;28;20935;-81
2021/04/19 00:49:17;;;;;;;22.03;13.17;;;8.50;99.90;;;;;;5106438;28;20408;-81
2021/04/19 00:51:42;;;;;;;22.87;14.70;;;8.50;99.90;;;;;;5108184;28;20482;-82
2021/04/19 00:54:09;;;;;;;19.47;12.90;;;8.40;99.90;;;;;;5106187;28;20405;-82
2021/04/19 00:56:36;;;;;;;17.30;12.17;;;8.20;99.90;;;;;;5106857;28;20972;-81
2021/04/19 00:59:01;;;;;;;17.03;12.70;;;8.20;99.90;;;;;;5106781;28;20404;-82
2021/04/19 01:01:31;;;;;;;22.40;13.73;;;8.30;99.90;;;;;;5107222;28;20546;-82
2021/04/19 01:03:57;;;;;;;19.17;14.27;;;8.30;99.90;;;;;;5089049;28;20151;-82
2021/04/19 01:06:23;;;;;;;17.53;11.87;;;8.30;99.90;;;;;;5088914;28;20748;-81
2021/04/19 01:08:49;;;;;;;20.20;14.37;;;8.30;99.90;;;;;;5105653;28;20524;-82
2021/04/19 01:11:15;;;;;;;17.77;13.80;;;8.20;99.90;;;;;;5106227;28;20269;-81
2021/04/19 01:13:41;;;;;;;27.63;13.43;;;8.10;99.90;;;;;;5106240;28;20250;-82
2021/04/19 01:16:06;;;;;;;19.73;14.00;;;8.20;99.90;;;;;;5087338;28;20441;-82
2021/04/19 01:18:32;;;;;;;26.60;14.30;;;8.20;99.90;;;;;;5104757;28;20159;-82
2021/04/19 01:20:58;;;;;;;17.50;13.80;;;8.30;99.90;;;;;;5106328;28;20257;-82
2021/04/19 01:23:25;;;;;;;23.40;14.47;;;8.20;99.90;;;;;;5088157;28;20201;-82
2021/04/19 01:25:51;;;;;;;19.77;13.33;;;8.20;99.90;;;;;;5105923;28;20408;-82
2021/04/19 01:28:18;;;;;;;21.43;12.93;;;8.20;99.90;;;;;;5106506;28;20454;-82
2021/04/19 01:30:47;;;;;;;21.73;15.07;;;8.20;99.90;;;;;;5088032;28;20368;-81
2021/04/19 01:33:14;;;;;;;19.87;13.63;;;8.30;99.90;;;;;;5105759;28;20393;-82
2021/04/19 01:35:40;;;;;;;19.03;15.00;;;8.30;99.90;;;;;;5104802;28;20396;-82
2021/04/19 01:38:08;;;;;;;22.40;14.90;;;8.30;99.90;;;;;;5106156;28;20389;-82
2021/04/19 01:40:34;;;;;;;22.27;15.83;;;8.40;99.90;;;;;;5104022;28;20444;-81
2021/04/19 01:43:00;;;;;;;24.20;13.60;;;8.30;99.90;;;;;;5106251;28;20470;-82
2021/04/19 01:45:26;;;;;;;20.40;13.27;;;8.40;99.90;;;;;;5106063;28;20258;-82
2021/04/19 01:47:53;;;;;;;22.77;16.17;;;8.40;99.90;;;;;;5106395;28;20169;-81
2021/04/19 01:50:22;;;;;;;20.53;14.57;;;8.40;99.90;;;;;;5105918;28;20409;-81
2021/04/19 01:52:48;;;;;;;22.80;15.40;;;8.40;99.90;;;;;;5106297;28;20436;-82
2021/04/19 01:55:17;;;;;;;24.90;17.17;;;8.50;99.90;;;;;;5105327;28;20453;-82
2021/04/19 01:57:47;;;;;;;19.13;13.97;;;8.60;99.90;;;;;;5106029;28;20455;-82
2021/04/19 02:00:14;;;;;;;24.13;13.70;;;8.70;99.90;;;;;;5106079;28;20405;-82
2021/04/19 02:02:57;;;;;;;22.10;15.43;;;8.90;99.90;;;;;;5105902;28;20429;-82
2021/04/19 02:05:46;;;;;;;25.33;16.30;;;8.90;99.90;;;;;;5105654;28;20396;-82
2021/04/19 02:08:40;;;;;;;20.27;14.30;;;9.00;99.90;;;;;;5105821;28;20432;-82
2021/04/19 02:11:19;;;;;;;14.53;11.73;;;9.10;99.90;;;;;;5106280;28;20396;-82
2021/04/19 02:14:03;;;;;;;16.83;10.43;;;9.10;99.90;;;;;;5107539;28;20419;-82
2021/04/19 02:16:43;;;;;;;13.83;10.27;;;9.10;99.90;;;;;;5108533;28;20435;-82
2021/04/19 02:19:21;;;;;;;13.93;8.47;;;9.10;99.90;;;;;;5104909;28;20419;-81
2021/04/19 02:21:52;;;;;;;13.50;10.33;;;9.10;99.90;;;;;;5104673;28;20489;-82
2021/04/19 02:24:22;;;;;;;16.60;9.37;;;9.10;99.90;;;;;;5105910;28;20398;-82
2021/04/19 02:27:00;;;;;;;13.03;8.70;;;9.10;99.90;;;;;;5103861;28;20858;-82
2021/04/19 02:29:39;;;;;;;12.07;8.13;;;9.10;99.90;;;;;;5104988;28;20403;-82
2021/04/19 02:32:10;;;;;;;11.20;8.43;;;9.10;99.90;;;;;;5104388;28;20438;-82
2021/04/19 02:34:37;;;;;;;13.57;8.60;;;9.10;99.90;;;;;;5105697;28;20394;-82
2021/04/19 02:37:04;;;;;;;9.60;7.10;;;9.10;99.90;;;;;;5105683;28;20429;-82
2021/04/19 02:39:34;;;;;;;12.87;7.30;;;9.10;99.90;;;;;;5105303;28;20412;-82
2021/04/19 02:42:01;;;;;;;10.97;9.37;;;9.10;99.90;;;;;;5105608;28;20464;-83
2021/04/19 02:44:28;;;;;;;13.47;8.20;;;9.10;99.90;;;;;;5104347;28;20402;-83
2021/04/19 02:46:55;;;;;;;10.13;7.43;;;9.10;99.90;;;;;;5105032;28;20443;-82
2021/04/19 02:49:23;;;;;;;11.33;7.53;;;9.10;99.90;;;;;;5105050;28;20474;-82
2021/04/19 02:51:51;;;;;;;13.07;8.10;;;9.10;99.90;;;;;;5106429;28;20389;-82
2021/04/19 02:54:21;;;;;;;14.70;7.23;;;9.00;99.90;;;;;;5117397;28;20402;-79
2021/04/19 02:56:50;;;;;;;16.13;8.83;;;9.00;99.90;;;;;;5117851;28;20412;-79
2021/04/19 02:59:19;;;;;;;16.53;9.10;;;9.00;99.90;;;;;;5117655;28;20385;-79
2021/04/19 03:01:49;;;;;;;11.90;8.97;;;9.00;99.90;;;;;;5114967;28;20448;-81
2021/04/19 03:04:20;;;;;;;10.90;7.77;;;9.00;99.90;;;;;;5110515;28;20393;-80
2021/04/19 03:06:50;;;;;;;13.43;7.30;;;9.00;99.90;;;;;;5117970;28;20408;-81
2021/04/19 03:09:17;;;;;;;10.47;8.40;;;8.90;99.90;;;;;;5106178;28;20436;-82
2021/04/19 03:11:49;;;;;;;11.60;7.43;;;8.90;99.90;;;;;;5105243;28;20737;-82
2021/04/19 03:14:16;;;;;;;10.93;7.30;;;8.90;99.90;;;;;;5103982;28;20401;-82
2021/04/19 03:16:48;;;;;;;8.73;7.50;;;9.00;99.90;;;;;;5104482;28;20472;-82
2021/04/19 03:19:20;;;;;;;10.77;6.63;;;9.00;99.90;;;;;;5104334;28;20794;-81
2021/04/19 03:21:49;;;;;;;10.00;6.23;;;8.90;99.90;;;;;;5105076;28;20441;-81
2021/04/19 03:24:15;;;;;;;9.93;7.00;;;8.90;99.90;;;;;;5105792;28;20746;-81
2021/04/19 03:26:45;;;;;;;11.33;7.43;;;9.00;99.90;;;;;;5104270;28;20389;-81
2021/04/19 03:29:11;;;;;;;8.87;6.47;;;8.90;99.90;;;;;;5105200;28;20389;-81
2021/04/19 03:31:49;;;;;;;7.67;6.60;;;8.90;99.90;;;;;;5103739;28;20404;-81
2021/04/19 03:34:25;;;;;;;9.17;7.27;;;8.90;99.90;;;;;;5104664;28;20417;-82
2021/04/19 03:36:56;;;;;;;9.53;6.50;;;8.80;99.90;;;;;;5103978;28;20385;-81
2021/04/19 03:39:25;;;;;;;11.90;7.33;;;8.80;99.90;;;;;;5105731;28;20899;-81
2021/04/19 03:41:54;;;;;;;14.60;7.90;;;8.80;99.90;;;;;;5104253;28;20949;-82
2021/04/19 03:44:27;;;;;;;8.83;7.20;;;8.80;99.90;;;;;;5104914;28;20385;-83
2021/04/19 03:46:55;;;;;;;11.73;9.07;;;8.90;99.90;;;;;;5104695;28;20496;-81
2021/04/19 03:49:28;;;;;;;9.20;6.30;;;8.90;99.90;;;;;;5103702;28;20423;-81
2021/04/19 03:52:00;;;;;;;9.00;6.03;;;8.90;99.90;;;;;;5103209;28;20393;-81
2021/04/19 03:54:31;;;;;;;10.60;6.97;;;8.80;99.90;;;;;;5104315;28;20396;-81
2021/04/19 03:57:01;;;;;;;9.83;6.57;;;8.80;99.90;;;;;;5104290;28;20401;-81
2021/04/19 03:59:29;;;;;;;7.27;6.30;;;8.90;99.90;;;;;;5108046;28;20401;-81
2021/04/19 04:01:57;;;;;;;9.20;6.80;;;8.90;99.90;;;;;;5108033;28;20789;-82
2021/04/19 04:04:24;;;;;;;10.27;7.03;;;8.90;99.90;;;;;;5108234;28;20412;-81
2021/04/19 04:06:51;;;;;;;13.20;7.20;;;8.90;99.90;;;;;;5107642;28;20773;-81
2021/04/19 04:09:18;;;;;;;10.97;7.03;;;8.90;99.90;;;;;;5108411;28;20452;-82
2021/04/19 04:11:45;;;;;;;9.63;6.33;;;8.90;99.90;;;;;;5107537;28;20393;-82
2021/04/19 04:14:11;;;;;;;7.93;6.07;;;8.90;99.90;;;;;;5108226;28;20397;-82
2021/04/19 04:16:43;;;;;;;9.27;6.80;;;8.90;99.90;;;;;;5107413;28;20400;-82
2021/04/19 04:19:09;;;;;;;6.53;5.80;;;9.00;99.90;;;;;;5107507;28;20389;-82
2021/04/19 04:21:36;;;;;;;10.40;6.80;;;9.00;99.90;;;;;;5107563;28;20581;-81
2021/04/19 04:24:03;;;;;;;10.47;8.40;;;9.00;99.90;;;;;;5108387;28;20385;-82
2021/04/19 04:26:30;;;;;;;9.17;6.63;;;9.00;99.90;;;;;;5108122;28;20393;-82
2021/04/19 04:28:56;;;;;;;11.10;6.93;;;8.90;99.90;;;;;;5108663;28;20395;-82
2021/04/19 04:31:25;;;;;;;11.10;6.23;;;8.90;99.90;;;;;;5107969;28;20456;-81
2021/04/19 04:34:14;;;;;;;8.20;6.50;;;8.90;99.90;;;;;;5106616;28;20712;-81
2021/04/19 04:36:40;;;;;;;13.37;6.73;;;8.90;99.90;;;;;;5069495;28;20407;-81
2021/04/19 04:39:09;;;;;;;10.10;5.80;;;8.90;99.90;;;;;;5069986;28;20409;-81
2021/04/19 04:41:35;;;;;;;7.30;6.00;;;8.90;99.90;;;;;;5085180;28;20460;-82
2021/04/19 04:44:04;;;;;;;9.90;7.00;;;8.80;99.90;;;;;;5084879;28;20176;-81
2021/04/19 04:46:45;;;;;;;10.70;6.80;;;8.80;99.90;;;;;;5068955;28;20167;-82
2021/04/19 04:49:17;;;;;;;11.33;7.00;;;8.80;99.90;;;;;;5068617;28;20384;-82
2021/04/19 04:51:46;;;;;;;10.60;7.80;;;8.80;99.90;;;;;;5069202;28;20500;-82
2021/04/19 04:54:16;;;;;;;7.27;6.57;;;8.80;99.90;;;;;;5084896;28;20409;-82
2021/04/19 04:56:48;;;;;;;8.30;6.63;;;8.80;99.90;;;;;;5084418;28;20437;-82
2021/04/19 04:59:14;;;;;;;14.00;9.10;;;8.70;99.90;;;;;;5084794;28;20405;-82
2021/04/19 05:01:43;;;;;;;9.47;7.10;;;8.70;99.90;;;;;;5100862;28;20799;-81
2021/04/19 05:04:10;;;;;;;10.27;7.93;;;8.60;99.90;;;;;;5107917;28;20426;-82
2021/04/19 05:06:36;;;;;;;10.87;8.23;;;8.70;99.90;;;;;;5108765;28;20393;-81
2021/04/19 05:09:03;;;;;;;11.10;7.73;;;8.80;99.90;;;;;;5107814;28;20451;-81
2021/04/19 05:11:29;;;;;;;9.57;7.10;;;8.90;99.90;;;;;;5109626;28;20385;-81
2021/04/19 05:14:02;;;;;;;10.17;7.27;;;8.90;99.90;;;;;;5109160;28;20393;-82
2021/04/19 05:16:31;;;;;;;8.43;6.80;;;8.90;99.90;;;;;;5108390;28;20250;-82
2021/04/19 05:18:58;;;;;;;7.50;6.70;;;8.90;99.90;;;;;;5110610;28;20401;-82
2021/04/19 05:21:24;;;;;;;15.37;8.60;;;8.90;99.90;;;;;;5109786;28;20993;-82
2021/04/19 05:23:50;;;;;;;13.20;8.47;;;8.90;99.90;;;;;;5107361;28;20389;-82
2021/04/19 05:26:16;;;;;;;11.07;8.00;;;8.90;99.90;;;;;;5106438;28;20424;-82
2021/04/19 05:28:43;;;;;;;9.73;7.90;;;8.90;99.90;;;;;;5105688;28;20155;-82
2021/04/19 05:31:10;;;;;;;7.53;6.00;;;9.00;99.90;;;;;;5107347;28;20393;-82
2021/04/19 05:33:37;;;;;;;12.17;7.43;;;9.00;99.90;;;;;;5106821;28;20403;-81
2021/04/19 05:36:12;;;;;;;10.70;8.17;;;8.90;99.90;;;;;;5106524;28;20457;-81
2021/04/19 05:38:41;;;;;;;12.43;8.67;;;9.00;99.90;;;;;;5105916;28;20776;-82
2021/04/19 05:41:09;;;;;;;10.80;6.50;;;9.00;99.90;;;;;;5106012;28;20524;-81
2021/04/19 05:43:35;;;;;;;7.90;6.77;;;9.00;99.90;;;;;;5107331;28;20407;-82
2021/04/19 05:46:02;;;;;;;8.70;6.70;;;9.00;99.90;;;;;;5105816;28;20940;-81
2021/04/19 05:48:28;;;;;;;8.37;7.13;;;9.00;99.90;;;;;;5105976;28;20159;-82
2021/04/19 05:50:57;;;;;;;6.83;5.57;;;9.00;99.90;;;;;;5106805;28;20409;-82
2021/04/19 05:53:25;;;;;;;10.40;7.60;;;9.00;99.90;;;;;;5108118;28;20170;-81
2021/04/19 05:55:55;;;;;;;10.53;7.10;;;9.00;99.90;;;;;;5099817;28;20407;-80
2021/04/19 05:58:28;;;;;;;12.40;7.77;;;9.00;99.90;;;;;;5089112;28;20456;-80
2021/04/19 06:01:05;;;;;;;9.17;6.87;;;9.00;99.90;;;;;;5105714;28;20485;-82
2021/04/19 06:03:45;;;;;;;11.23;7.87;;;9.00;99.90;;;;;;5107596;28;20414;-82
2021/04/19 06:06:37;;;;;;;16.53;8.83;;;9.00;99.90;;;;;;5108927;28;20526;-82
2021/04/19 06:09:26;;;;;;;12.43;7.70;;;9.20;99.90;;;;;;5111340;28;20460;-82
2021/04/19 06:11:57;;;;;;;13.27;7.90;;;9.20;99.90;;;;;;5062635;28;20426;-82
2021/04/19 06:14:28;;;;;;;10.30;8.13;;;9.20;99.90;;;;;;5061372;28;20418;-82
2021/04/19 06:16:56;;;;;;;10.00;7.67;;;9.20;99.90;;;;;;5061039;28;20441;-82
2021/04/19 06:19:26;;;;;;;12.60;8.17;;;9.20;99.90;;;;;;5061827;28;20793;-82
2021/04/19 06:21:54;;;;;;;14.60;9.30;;;9.30;99.90;;;;;;5061492;28;20461;-81
2021/04/19 06:24:23;;;;;;;11.70;7.20;;;9.20;99.90;;;;;;5061561;28;20914;-82
2021/04/19 06:26:52;;;;;;;11.60;7.20;;;9.00;99.90;;;;;;5006637;28;20436;-82
2021/04/19 06:29:26;;;;;;;11.83;8.40;;;9.00;99.90;;;;;;4974407;28;20522;-81
2021/04/19 06:31:52;;;;;;;10.57;7.57;;;9.10;99.90;;;;;;5020746;28;20478;-82
2021/04/19 06:34:19;;;;;;;10.77;8.37;;;9.20;99.90;;;;;;5020993;28;20428;-81
2021/04/19 06:36:49;;;;;;;12.80;8.60;;;9.20;99.90;;;;;;5019843;28;20436;-82
2021/04/19 06:39:17;;;;;;;12.93;8.30;;;9.30;99.90;;;;;;5019911;28;20431;-82
2021/04/19 06:41:44;;;;;;;11.77;9.20;;;9.30;99.90;;;;;;5022108;28;20511;-82
2021/04/19 06:44:13;;;;;;;17.90;10.43;;;9.30;99.90;;;;;;5072544;28;20813;-81
2021/04/19 06:46:41;;;;;;;10.73;8.70;;;9.30;99.90;;;;;;5055877;28;20437;-82
2021/04/19 06:49:09;;;;;;;17.77;8.90;;;9.40;99.90;;;;;;5080259;28;20505;-81
2021/04/19 06:51:35;;;;;;;15.50;9.13;;;9.30;99.90;;;;;;5060471;28;20438;-80
2021/04/19 06:54:02;;;;;;;9.70;7.63;;;9.10;99.90;;;;;;5068420;28;20437;-82
2021/04/19 06:56:37;;;;;;;10.93;8.43;;;9.30;99.90;;;;;;5071595;28;20577;-82
2021/04/19 06:59:04;;;;;;;17.27;10.33;;;9.40;99.90;;;;;;5092119;28;20440;-82
2021/04/19 07:01:31;;;;;;;12.93;9.90;;;9.50;99.90;;;;;;5099174;28;20821;-82
2021/04/19 07:04:02;;;;;;;14.00;9.57;;;9.60;99.90;;;;;;5085004;28;20437;-82
2021/04/19 07:06:46;;;;;;;16.67;9.20;;;9.70;99.90;;;;;;5100161;28;20424;-82
2021/04/19 07:09:30;;;;;;;16.23;10.97;;;9.80;99.90;;;;;;5100244;28;20459;-82
2021/04/19 07:12:05;;;;;;;15.73;9.20;;;9.90;99.90;;;;;;5099052;28;20484;-81
2021/04/19 07:14:34;;;;;;;9.30;7.70;;;10.00;99.90;;;;;;5094154;28;20950;-82
2021/04/19 07:17:03;;;;;;;10.50;8.07;;;9.90;99.90;;;;;;5099246;28;20428;-81
2021/04/19 07:19:31;;;;;;;10.30;7.17;;;9.90;99.90;;;;;;5099555;28;20432;-82
2021/04/19 07:21:57;;;;;;;12.00;8.80;;;9.90;99.90;;;;;;5100099;28;20456;-82
2021/04/19 07:24:27;;;;;;;12.33;10.00;;;10.00;99.90;;;;;;5082553;28;20420;-81
2021/04/19 07:26:55;;;;;;;11.37;7.53;;;9.90;99.90;;;;;;5098512;28;20457;-82
2021/04/19 07:29:21;;;;;;;13.10;9.40;;;9.90;99.90;;;;;;5100175;28;20448;-82
2021/04/19 07:31:50;;;;;;;12.73;8.67;;;10.00;99.90;;;;;;5100121;28;20412;-82
2021/04/19 07:34:21;;;;;;;13.13;10.13;;;10.00;99.90;;;;;;5106697;28;20915;-82
2021/04/19 07:36:49;;;;;;;20.63;11.67;;;10.00;99.90;;;;;;5099838;28;20418;-82
2021/04/19 07:39:21;;;;;;;12.90;10.77;;;10.10;99.90;;;;;;5100681;28;20500;-82
2021/04/19 07:41:55;;;;;;;12.50;9.77;;;9.90;99.90;;;;;;5101833;28;20472;-82
2021/04/19 07:44:49;;;;;;;15.53;9.73;;;10.00;99.90;;;;;;5095583;28;20431;-83
2021/04/19 07:47:25;;;;;;;13.93;9.27;;;10.20;99.90;;;;;;5102137;28;20496;-82
2021/04/19 07:49:56;;;;;;;20.67;11.97;;;10.10;99.90;;;;;;5103608;28;20412;-81
2021/04/19 07:52:22;;;;;;;21.90;11.23;;;9.90;99.90;;;;;;5102884;28;20418;-83
2021/04/19 07:55:07;;;;;;;17.13;9.50;;;10.00;99.90;;;;;;5083309;28;20412;-82
2021/04/19 07:57:33;;;;;;;16.43;11.23;;;10.10;99.90;;;;;;5098042;28;20428;-82
2021/04/19 07:59:59;;;;;;;17.90;11.07;;;10.20;99.90;;;;;;5101583;28;20741;-82
2021/04/19 08:02:25;;;;;;;17.10;10.37;;;10.20;99.90;;;;;;5098878;28;20472;-82
2021/04/19 08:04:53;;;;;;;16.93;10.27;;;10.30;99.90;;;;;;5101255;28;20420;-82
2021/04/19 08:07:22;;;;;;;19.27;12.20;;;10.30;99.90;;;;;;5099416;28;20440;-82
2021/04/19 08:10:00;;;;;;;16.03;11.20;;;10.30;99.90;;;;;;5055230;28;20417;-82
2021/04/19 08:12:41;;;;;;;15.60;9.93;;;10.30;99.90;;;;;;5078107;28;20432;-82
2021/04/19 08:15:13;;;;;;;12.30;9.33;;;10.40;99.90;;;;;;5077226;28;20866;-82
2021/04/19 08:17:40;;;;;;;16.00;10.33;;;10.30;99.90;;;;;;5077348;28;20421;-82
2021/04/19 08:20:09;;;;;;;16.80;11.47;;;10.40;99.90;;;;;;5060602;28;20436;-82
2021/04/19 08:22:36;;;;;;;15.50;10.67;;;10.50;99.90;;;;;;5079423;28;20513;-82
2021/04/19 08:25:26;;;;;;;14.33;9.80;;;10.40;99.90;;;;;;5078884;28;20425;-82
2021/04/19 08:28:13;;;;;;;14.53;11.30;;;10.50;99.90;;;;;;5077978;28;20504;-82
2021/04/19 08:30:42;;;;;;;16.33;12.57;;;10.50;99.90;;;;;;5045381;28;20410;-83
2021/04/19 08:33:10;;;;;;;17.40;10.93;;;10.40;99.90;;;;;;5077729;28;20429;-81
2021/04/19 08:35:36;;;;;;;14.07;11.63;;;10.30;99.90;;;;;;5060099;28;20429;-82
2021/04/19 08:38:04;;;;;;;21.43;12.97;;;10.40;99.90;;;;;;5088385;28;20436;-82
2021/04/19 08:40:32;;;;;;;17.57;12.53;;;10.40;99.90;;;;;;5083226;28;20452;-80
2021/04/19 08:42:58;;;;;;;20.43;14.03;;;10.40;99.90;;;;;;5114612;28;20473;-80
2021/04/19 08:45:29;;;;;;;24.03;14.50;;;10.50;99.90;;;;;;5115563;28;20523;-82
2021/04/19 08:47:55;;;;;;;21.17;13.10;;;10.50;99.90;;;;;;5083046;28;20428;-82
2021/04/19 08:50:25;;;;;;;19.73;13.60;;;10.40;99.90;;;;;;5098382;28;20463;-81
2021/04/19 08:52:54;;;;;;;23.87;13.20;;;10.50;99.90;;;;;;5084285;28;20507;-82
2021/04/19 08:55:20;;;;;;;26.77;15.57;;;10.50;99.90;;;;;;5100067;28;20436;-82
2021/04/19 08:57:47;;;;;;;27.27;16.23;;;10.40;99.90;;;;;;5082261;28;20421;-82
2021/04/19 09:00:17;;;;;;;20.20;15.50;;;10.40;99.90;;;;;;5101728;28;20189;-82
2021/04/19 09:02:44;;;;;;;30.60;14.40;;;10.40;99.90;;;;;;5100774;28;20451;-81
2021/04/19 09:05:13;;;;;;;26.10;13.53;;;10.40;99.90;;;;;;5101118;28;20412;-81
2021/04/19 09:07:42;;;;;;;22.27;11.73;;;10.40;99.90;;;;;;5098914;28;20474;-82
2021/04/19 09:10:11;;;;;;;22.93;13.43;;;10.30;99.90;;;;;;5102388;28;20470;-82
2021/04/19 09:12:37;;;;;;;20.70;13.50;;;10.20;99.90;;;;;;5106043;28;20428;-83
2021/04/19 09:15:25;;;;;;;22.97;14.60;;;10.20;99.90;;;;;;5105452;28;20435;-83
2021/04/19 09:18:08;;;;;;;20.87;12.97;;;10.20;99.90;;;;;;5103176;28;20503;-82
2021/04/19 09:20:51;;;;;;;18.50;12.00;;;10.10;99.90;;;;;;5085553;28;20420;-82
2021/04/19 09:23:32;;;;;;;19.70;13.10;;;10.10;99.90;;;;;;5085580;28;20409;-81
2021/04/19 09:26:00;;;;;;;24.33;14.53;;;10.10;99.90;;;;;;5075535;28;20543;-81
2021/04/19 09:28:53;;;;;;;19.30;14.27;;;10.20;99.90;;;;;;5066099;28;20413;-80
2021/04/19 09:31:58;;;;;;;25.23;13.80;;;10.10;99.90;;;;;;5101406;28;20474;-81
2021/04/19 09:34:54;;;;;;;19.23;14.10;;;10.10;99.90;;;;;;5102856;28;20413;-82
2021/04/19 09:37:41;;;;;;;23.23;14.53;;;10.00;99.90;;;;;;5102215;28;20508;-82
2021/04/19 09:40:16;;;;;;;21.13;13.57;;;10.20;99.90;;;;;;5102718;28;20438;-83
2021/04/19 09:43:04;;;;;;;23.10;15.20;;;10.30;99.90;;;;;;5098495;28;20472;-83
2021/04/19 09:45:51;;;;;;;17.70;12.40;;;10.40;99.90;;;;;;5075210;28;20420;-82
2021/04/19 09:48:38;;;;;;;16.33;11.80;;;10.50;99.90;;;;;;5083018;28;20424;-82
2021/04/19 09:51:13;;;;;;;21.90;13.73;;;10.50;99.90;;;;;;5090406;28;20416;-82
2021/04/19 09:53:44;;;;;;;22.37;13.90;;;10.50;99.90;;;;;;5099334;28;20408;-82
2021/04/19 09:56:10;;;;;;;25.37;14.03;;;10.60;99.90;;;;;;5094880;28;20424;-82
2021/04/19 09:58:39;;;;;;;21.30;13.30;;;10.60;99.90;;;;;;5065388;28;20408;-82
2021/04/19 10:01:05;;;;;;;22.17;12.73;;;10.60;99.90;;;;;;5066314;28;20447;-82
2021/04/19 10:03:33;;;;;;;25.40;15.63;;;10.70;99.90;;;;;;5047860;28;20462;-82
2021/04/19 10:06:03;;;;;;;22.77;13.73;;;10.70;99.90;;;;;;5097187;28;20520;-82
2021/04/19 10:08:34;;;;;;;21.77;14.07;;;10.70;99.90;;;;;;5080357;28;20452;-82
2021/04/19 10:11:01;;;;;;;22.90;15.10;;;10.70;99.90;;;;;;5069851;28;20943;-82
2021/04/19 10:13:33;;;;;;;18.50;13.37;;;10.70;99.90;;;;;;5080301;28;20417;-81
2021/04/19 10:16:06;;;;;;;21.90;13.50;;;10.70;99.90;;;;;;5083740;28;20920;-82
2021/04/19 10:18:35;;;;;;;20.27;14.57;;;10.70;99.90;;;;;;5097720;28;20409;-82
2021/04/19 10:21:03;;;;;;;24.80;13.90;;;10.60;99.90;;;;;;5098679;28;20443;-82
2021/04/19 10:23:42;;;;;;;26.40;13.57;;;10.30;99.90;;;;;;5065741;28;20420;-82
2021/04/19 10:26:09;;;;;;;29.63;13.90;;;10.50;99.90;;;;;;5100907;28;20797;-82
2021/04/19 10:28:40;;;;;;;27.57;15.30;;;10.50;99.90;;;;;;5081318;28;20851;-82
2021/04/19 10:34:12;;;;;;;23.20;13.47;;;10.20;99.90;;;;;;5077588;28;20428;-82
2021/04/19 10:36:43;;;;;;;23.30;14.30;;;10.20;99.90;;;;;;5045856;28;20770;-82
2021/04/19 10:39:14;;;;;;;26.60;17.17;;;10.40;99.90;;;;;;5071955;28;20469;-83
2021/04/19 10:41:40;;;;;;;27.43;16.57;;;10.60;99.90;;;;;;5049078;28;20470;-83
2021/04/19 10:44:10;;;;;;;24.10;15.87;;;10.70;99.90;;;;;;5057301;28;20407;-82
2021/04/19 10:46:41;;;;;;;28.70;14.30;;;10.60;99.90;;;;;;5064905;28;20887;-81
2021/04/19 10:49:08;;;;;;;20.97;13.23;;;10.50;99.90;;;;;;5076234;28;20969;-82
2021/04/19 10:51:36;;;;;;;25.33;16.30;;;10.70;99.90;;;;;;5071505;28;20418;-82
2021/04/19 10:54:10;;;;;;;20.47;12.17;;;10.80;99.90;;;;;;5074964;28;20479;-82
2021/04/19 10:56:39;;;;;;;27.87;14.40;;;10.90;99.90;;;;;;5066823;28;20501;-83
2021/04/19 10:59:07;;;;;;;21.97;13.67;;;11.00;99.90;;;;;;5059801;28;20398;-82
2021/04/19 11:01:36;;;;;;;24.60;15.70;;;11.10;99.90;;;;;;5075443;28;20460;-82
2021/04/19 11:04:06;;;;;;;20.87;12.83;;;11.20;99.90;;;;;;5058097;28;20418;-82
2021/04/19 11:06:32;;;;;;;26.47;14.17;;;11.20;99.90;;;;;;5042488;28;20839;-82
2021/04/19 11:09:00;;;;;;;22.13;12.37;;;11.30;99.90;;;;;;5050887;28;20514;-82
2021/04/19 11:11:32;;;;;;;26.17;15.10;;;11.40;99.90;;;;;;5075578;28;20921;-82
2021/04/19 11:14:10;;;;;;;21.97;14.40;;;11.40;99.90;;;;;;5049148;28;20493;-81
2021/04/19 11:16:36;;;;;;;21.73;15.30;;;11.40;99.90;;;;;;5095872;28;20425;-81
2021/04/19 11:19:04;;;;;;;23.57;14.40;;;11.40;99.90;;;;;;5097012;28;20416;-83
2021/04/19 11:21:34;;;;;;;26.70;13.17;;;11.60;99.90;;;;;;5096245;28;20472;-82
2021/04/19 11:24:13;;;;;;;25.93;12.87;;;11.50;99.90;;;;;;5095635;28;20476;-82
2021/04/19 11:26:40;;;;;;;19.50;11.80;;;11.50;99.90;;;;;;5097635;28;20420;-82
2021/04/19 11:29:06;;;;;;;17.80;11.80;;;11.50;99.90;;;;;;5099462;28;20912;-82
2021/04/19 11:31:44;;;;;;;21.47;14.07;;;11.50;99.90;;;;;;5078460;28;20944;-83
2021/04/19 11:34:12;;;;;;;24.87;12.77;;;11.60;99.90;;;;;;5077802;28;20914;-82
2021/04/19 11:36:41;;;;;;;22.03;12.90;;;11.60;99.90;;;;;;5088118;28;20462;-83
2021/04/19 11:39:21;;;;;;;20.40;12.43;;;11.70;99.90;;;;;;5099214;28;20469;-83
2021/04/19 11:41:49;;;;;;;18.40;12.00;;;11.70;99.90;;;;;;5102527;28;20476;-82
2021/04/19 11:44:17;;;;;;;18.60;12.10;;;11.80;99.90;;;;;;5099929;28;20417;-84
2021/04/19 11:46:47;;;;;;;21.13;12.70;;;12.00;99.90;;;;;;5081839;28;20431;-82
2021/04/19 11:49:20;;;;;;;24.80;15.80;;;11.80;99.90;;;;;;5064739;28;20419;-84
2021/04/19 11:51:48;;;;;;;20.50;13.53;;;11.90;99.90;;;;;;5065528;28;20824;-83
2021/04/19 11:54:18;;;;;;;19.27;12.77;;;12.00;99.90;;;;;;5078692;28;20401;-84
2021/04/19 11:56:44;;;;;;;20.00;12.70;;;12.10;99.90;;;;;;5059580;28;20948;-83
2021/04/19 11:59:11;;;;;;;24.43;16.13;;;11.90;99.90;;;;;;5045629;28;20477;-81
2021/04/19 12:01:38;;;;;;;16.93;12.10;;;12.00;99.90;;;;;;5068398;28;20480;-81
2021/04/19 12:04:19;;;;;;;20.50;11.83;;;12.10;99.90;;;;;;5070324;28;20408;-81
2021/04/19 12:06:52;;;;;;;18.40;12.83;;;12.20;99.90;;;;;;5052284;28;20477;-81
2021/04/19 12:09:17;;;;;;;17.20;11.40;;;12.10;99.90;;;;;;5037963;28;20509;-81
2021/04/19 12:11:43;;;;;;;18.37;10.60;;;12.20;99.90;;;;;;5029079;28;20450;-81
2021/04/19 12:14:09;;;;;;;20.53;12.20;;;12.30;99.90;;;;;;5043135;28;20192;-79
2021/04/19 12:16:36;;;;;;;19.57;12.57;;;12.30;99.90;;;;;;5058199;28;20643;-81
2021/04/19 12:19:02;;;;;;;17.27;12.53;;;12.30;99.90;;;;;;5047452;28;20282;-81
2021/04/19 12:21:28;;;;;;;20.87;11.10;;;12.30;99.90;;;;;;5047108;28;20463;-81
2021/04/19 12:23:54;;;;;;;12.67;10.47;;;12.40;99.90;;;;;;5047240;28;20442;-81
2021/04/19 12:26:20;;;;;;;13.67;9.43;;;12.40;99.90;;;;;;5048277;28;20183;-81
2021/04/19 12:28:47;;;;;;;21.97;11.17;;;12.50;99.90;;;;;;5064077;28;20292;-81
2021/04/19 12:31:13;;;;;;;17.00;10.50;;;12.60;99.90;;;;;;5083130;28;20920;-81
2021/04/19 12:33:39;;;;;;;18.93;11.07;;;12.80;99.90;;;;;;5106078;28;20413;-81
2021/04/19 12:36:06;;;;;;;14.20;9.90;;;13.00;99.90;;;;;;5088497;28;20412;-81
2021/04/19 12:38:33;;;;;;;15.77;11.57;;;13.10;99.90;;;;;;5106914;28;20515;-81
2021/04/19 12:40:59;;;;;;;13.17;8.93;;;13.30;99.90;;;;;;5071992;28;20451;-81
2021/04/19 12:43:25;;;;;;;13.70;10.93;;;13.60;99.90;;;;;;5071753;28;20454;-81
2021/04/19 12:45:51;;;;;;;13.03;9.47;;;14.00;99.90;;;;;;5106524;28;20461;-81
2021/04/19 12:48:17;;;;;;;11.70;8.63;;;14.40;99.90;;;;;;5092474;28;20476;-81
2021/04/19 12:50:43;;;;;;;16.10;10.37;;;15.30;99.90;;;;;;5090839;28;20159;-82
2021/04/19 12:53:11;;;;;;;10.20;7.80;;;16.20;99.90;;;;;;5107721;28;20267;-81
2021/04/19 12:55:41;;;;;;;11.63;9.40;;;16.90;99.90;;;;;;5107621;28;20519;-80